sensor_id;sensor_type;location;lat;lon;timestamp;P1;durP1;ratioP1;P2;durP2;ratioP2
35959;SDS011;22043;50.970;7.192;2022-10-16T00:00:34;4.28;;;1.40;;
35959;SDS011;22043;50.970;7.192;2022-10-16T00:03:01;2.28;;;1.20;;
35959;SDS011;22043;50.970;7.192;2022-10-16T00:05:27;3.15;;;1.23;;
35959;SDS011;22043;50.970;7.192;2022-10-16T00:07:54;3.08;;;1.35;;
35959;SDS011;22043;50.970;7.192;2022-10-16T00:10:20;4.10;;;1.10;;
35959;SDS011;22043;50.970;7.192;2022-10-16T00:12:46;2.03;;;0.88;;
35959;SDS011;22043;50.970;7.192;2022-10-16T00:15:12;5.07;;;1.85;;
35959;SDS011;22043;50.970;7.192;2022-10-16T00:17:38;3.03;;;1.30;;
35959;SDS011;22043;50.970;7.192;2022-10-16T00:20:04;4.72;;;1.50;;
35959;SDS011;22043;50.970;7.192;2022-10-16T00:22:30;3.85;;;1.00;;
35959;SDS011;22043;50.970;7.192;2022-10-16T00:24:58;3.03;;;1.20;;
35959;SDS011;22043;50.970;7.192;2022-10-16T00:27:24;4.78;;;1.00;;
35959;SDS011;22043;50.970;7.192;2022-10-16T00:29:51;2.67;;;0.90;;
35959;SDS011;22043;50.970;7.192;2022-10-16T00:32:19;4.78;;;1.10;;
35959;SDS011;22043;50.970;7.192;2022-10-16T00:34:45;3.13;;;1.13;;
35959;SDS011;22043;50.970;7.192;2022-10-16T00:37:11;2.45;;;1.10;;
35959;SDS011;22043;50.970;7.192;2022-10-16T00:39:37;2.08;;;1.33;;
35959;SDS011;22043;50.970;7.192;2022-10-16T00:42:03;2.78;;;1.02;;
35959;SDS011;22043;50.970;7.192;2022-10-16T00:44:43;3.10;;;1.17;;
35959;SDS011;22043;50.970;7.192;2022-10-16T00:47:24;2.35;;;1.38;;
35959;SDS011;22043;50.970;7.192;2022-10-16T00:49:56;2.10;;;1.05;;
35959;SDS011;22043;50.970;7.192;2022-10-16T00:52:33;2.47;;;1.10;;
35959;SDS011;22043;50.970;7.192;2022-10-16T00:54:59;3.47;;;1.02;;
35959;SDS011;22043;50.970;7.192;2022-10-16T00:57:26;4.00;;;1.02;;
35959;SDS011;22043;50.970;7.192;2022-10-16T00:59:52;2.90;;;0.98;;
35959;SDS011;22043;50.970;7.192;2022-10-16T01:02:18;2.97;;;0.93;;
35959;SDS011;22043;50.970;7.192;2022-10-16T01:04:46;2.92;;;1.00;;
35959;SDS011;22043;50.970;7.192;2022-10-16T01:12:41;2.72;;;0.93;;
35959;SDS011;22043;50.970;7.192;2022-10-16T01:18:21;1.65;;;0.93;;
35959;SDS011;22043;50.970;7.192;2022-10-16T01:21:08;2.97;;;1.23;;
35959;SDS011;22043;50.970;7.192;2022-10-16T01:29:38;2.67;;;1.25;;
35959;SDS011;22043;50.970;7.192;2022-10-16T01:32:38;4.68;;;1.20;;
35959;SDS011;22043;50.970;7.192;2022-10-16T01:37:44;4.07;;;1.20;;
35959;SDS011;22043;50.970;7.192;2022-10-16T01:40:16;2.30;;;1.10;;
35959;SDS011;22043;50.970;7.192;2022-10-16T01:45:13;2.85;;;1.10;;
35959;SDS011;22043;50.970;7.192;2022-10-16T01:47:43;2.83;;;1.38;;
35959;SDS011;22043;50.970;7.192;2022-10-16T01:50:10;3.55;;;1.27;;
35959;SDS011;22043;50.970;7.192;2022-10-16T01:52:40;3.80;;;1.08;;
35959;SDS011;22043;50.970;7.192;2022-10-16T01:55:10;2.22;;;0.95;;
35959;SDS011;22043;50.970;7.192;2022-10-16T01:57:40;2.58;;;1.10;;
35959;SDS011;22043;50.970;7.192;2022-10-16T02:00:10;3.25;;;1.30;;
35959;SDS011;22043;50.970;7.192;2022-10-16T02:02:39;3.42;;;1.25;;
35959;SDS011;22043;50.970;7.192;2022-10-16T02:05:21;3.47;;;0.95;;
35959;SDS011;22043;50.970;7.192;2022-10-16T02:07:48;3.45;;;1.08;;
35959;SDS011;22043;50.970;7.192;2022-10-16T02:10:14;2.08;;;1.13;;
35959;SDS011;22043;50.970;7.192;2022-10-16T02:12:43;3.80;;;1.20;;
35959;SDS011;22043;50.970;7.192;2022-10-16T02:15:15;2.92;;;1.67;;
35959;SDS011;22043;50.970;7.192;2022-10-16T02:17:44;1.77;;;1.10;;
35959;SDS011;22043;50.970;7.192;2022-10-16T02:20:25;4.18;;;1.20;;
35959;SDS011;22043;50.970;7.192;2022-10-16T02:22:53;3.25;;;1.02;;
35959;SDS011;22043;50.970;7.192;2022-10-16T02:25:25;2.88;;;1.23;;
35959;SDS011;22043;50.970;7.192;2022-10-16T02:30:43;6.03;;;1.10;;
35959;SDS011;22043;50.970;7.192;2022-10-16T02:33:15;2.42;;;0.98;;
35959;SDS011;22043;50.970;7.192;2022-10-16T02:35:43;1.63;;;1.13;;
35959;SDS011;22043;50.970;7.192;2022-10-16T02:38:18;2.30;;;1.00;;
35959;SDS011;22043;50.970;7.192;2022-10-16T02:40:52;5.60;;;1.10;;
35959;SDS011;22043;50.970;7.192;2022-10-16T02:43:17;1.88;;;1.00;;
35959;SDS011;22043;50.970;7.192;2022-10-16T02:45:44;3.50;;;1.00;;
35959;SDS011;22043;50.970;7.192;2022-10-16T02:48:10;4.13;;;1.10;;
35959;SDS011;22043;50.970;7.192;2022-10-16T02:50:35;3.28;;;0.98;;
35959;SDS011;22043;50.970;7.192;2022-10-16T02:53:01;2.13;;;1.17;;
35959;SDS011;22043;50.970;7.192;2022-10-16T02:55:26;3.17;;;1.20;;
35959;SDS011;22043;50.970;7.192;2022-10-16T02:57:53;7.85;;;1.88;;
35959;SDS011;22043;50.970;7.192;2022-10-16T03:00:19;5.40;;;1.02;;
35959;SDS011;22043;50.970;7.192;2022-10-16T03:02:45;2.53;;;1.20;;
35959;SDS011;22043;50.970;7.192;2022-10-16T03:05:11;3.25;;;0.90;;
35959;SDS011;22043;50.970;7.192;2022-10-16T03:07:37;2.65;;;1.00;;
35959;SDS011;22043;50.970;7.192;2022-10-16T03:10:03;1.80;;;1.10;;
35959;SDS011;22043;50.970;7.192;2022-10-16T03:12:30;3.33;;;0.80;;
35959;SDS011;22043;50.970;7.192;2022-10-16T03:14:56;3.28;;;1.25;;
35959;SDS011;22043;50.970;7.192;2022-10-16T03:17:22;1.50;;;0.85;;
35959;SDS011;22043;50.970;7.192;2022-10-16T03:19:48;3.63;;;1.10;;
35959;SDS011;22043;50.970;7.192;2022-10-16T03:22:14;3.88;;;0.90;;
35959;SDS011;22043;50.970;7.192;2022-10-16T03:24:39;5.13;;;1.20;;
35959;SDS011;22043;50.970;7.192;2022-10-16T03:27:05;7.72;;;1.45;;
35959;SDS011;22043;50.970;7.192;2022-10-16T03:29:31;1.20;;;0.82;;
35959;SDS011;22043;50.970;7.192;2022-10-16T03:31:58;2.72;;;1.20;;
35959;SDS011;22043;50.970;7.192;2022-10-16T03:34:24;2.58;;;1.10;;
35959;SDS011;22043;50.970;7.192;2022-10-16T03:36:50;3.60;;;1.00;;
35959;SDS011;22043;50.970;7.192;2022-10-16T03:39:16;3.22;;;1.05;;
35959;SDS011;22043;50.970;7.192;2022-10-16T03:41:42;2.20;;;1.50;;
35959;SDS011;22043;50.970;7.192;2022-10-16T03:44:07;4.13;;;1.10;;
35959;SDS011;22043;50.970;7.192;2022-10-16T03:46:33;2.03;;;0.98;;
35959;SDS011;22043;50.970;7.192;2022-10-16T03:48:59;1.70;;;1.10;;
35959;SDS011;22043;50.970;7.192;2022-10-16T03:51:24;3.05;;;0.90;;
35959;SDS011;22043;50.970;7.192;2022-10-16T03:53:50;2.47;;;0.80;;
35959;SDS011;22043;50.970;7.192;2022-10-16T03:56:16;2.55;;;0.95;;
35959;SDS011;22043;50.970;7.192;2022-10-16T03:58:41;3.35;;;1.10;;
35959;SDS011;22043;50.970;7.192;2022-10-16T04:01:07;3.25;;;0.82;;
35959;SDS011;22043;50.970;7.192;2022-10-16T04:03:33;1.85;;;0.90;;
35959;SDS011;22043;50.970;7.192;2022-10-16T04:05:58;2.60;;;0.75;;
35959;SDS011;22043;50.970;7.192;2022-10-16T04:08:24;2.65;;;1.02;;
35959;SDS011;22043;50.970;7.192;2022-10-16T04:10:50;2.33;;;0.82;;
35959;SDS011;22043;50.970;7.192;2022-10-16T04:13:16;2.58;;;1.08;;
35959;SDS011;22043;50.970;7.192;2022-10-16T04:15:42;1.55;;;1.00;;
35959;SDS011;22043;50.970;7.192;2022-10-16T04:18:09;6.15;;;1.10;;
35959;SDS011;22043;50.970;7.192;2022-10-16T04:20:34;3.17;;;0.80;;
35959;SDS011;22043;50.970;7.192;2022-10-16T04:23:00;2.15;;;0.80;;
35959;SDS011;22043;50.970;7.192;2022-10-16T04:25:26;3.05;;;0.60;;
35959;SDS011;22043;50.970;7.192;2022-10-16T04:27:54;1.15;;;0.55;;
35959;SDS011;22043;50.970;7.192;2022-10-16T04:30:20;3.83;;;0.85;;
35959;SDS011;22043;50.970;7.192;2022-10-16T04:32:50;2.45;;;0.65;;
35959;SDS011;22043;50.970;7.192;2022-10-16T04:35:17;3.83;;;0.70;;
35959;SDS011;22043;50.970;7.192;2022-10-16T04:37:43;2.78;;;0.90;;
35959;SDS011;22043;50.970;7.192;2022-10-16T04:40:09;1.35;;;0.73;;
35959;SDS011;22043;50.970;7.192;2022-10-16T04:42:34;2.25;;;0.98;;
35959;SDS011;22043;50.970;7.192;2022-10-16T04:45:00;1.90;;;0.95;;
35959;SDS011;22043;50.970;7.192;2022-10-16T04:47:26;1.90;;;0.68;;
35959;SDS011;22043;50.970;7.192;2022-10-16T04:49:51;2.60;;;0.80;;
35959;SDS011;22043;50.970;7.192;2022-10-16T04:52:17;4.15;;;0.90;;
35959;SDS011;22043;50.970;7.192;2022-10-16T04:54:44;3.00;;;0.68;;
35959;SDS011;22043;50.970;7.192;2022-10-16T04:57:10;7.20;;;1.00;;
35959;SDS011;22043;50.970;7.192;2022-10-16T04:59:36;3.75;;;1.00;;
35959;SDS011;22043;50.970;7.192;2022-10-16T05:02:02;2.28;;;0.90;;
35959;SDS011;22043;50.970;7.192;2022-10-16T05:04:28;2.92;;;0.98;;
35959;SDS011;22043;50.970;7.192;2022-10-16T05:06:54;1.83;;;0.85;;
35959;SDS011;22043;50.970;7.192;2022-10-16T05:09:19;2.92;;;0.90;;
35959;SDS011;22043;50.970;7.192;2022-10-16T05:11:45;5.43;;;0.90;;
35959;SDS011;22043;50.970;7.192;2022-10-16T05:14:11;3.10;;;0.82;;
35959;SDS011;22043;50.970;7.192;2022-10-16T05:16:37;3.60;;;0.80;;
35959;SDS011;22043;50.970;7.192;2022-10-16T05:19:02;2.30;;;0.80;;
35959;SDS011;22043;50.970;7.192;2022-10-16T05:21:28;3.08;;;0.85;;
35959;SDS011;22043;50.970;7.192;2022-10-16T05:23:54;3.63;;;0.95;;
35959;SDS011;22043;50.970;7.192;2022-10-16T05:26:20;1.50;;;0.90;;
35959;SDS011;22043;50.970;7.192;2022-10-16T05:28:46;2.00;;;0.90;;
35959;SDS011;22043;50.970;7.192;2022-10-16T05:31:12;3.75;;;1.10;;
35959;SDS011;22043;50.970;7.192;2022-10-16T05:33:38;2.85;;;0.88;;
35959;SDS011;22043;50.970;7.192;2022-10-16T05:36:07;1.63;;;0.90;;
35959;SDS011;22043;50.970;7.192;2022-10-16T05:38:34;2.42;;;1.00;;
35959;SDS011;22043;50.970;7.192;2022-10-16T05:41:01;1.83;;;0.90;;
35959;SDS011;22043;50.970;7.192;2022-10-16T05:43:28;2.67;;;1.13;;
35959;SDS011;22043;50.970;7.192;2022-10-16T05:45:54;1.65;;;0.85;;
35959;SDS011;22043;50.970;7.192;2022-10-16T05:48:28;3.65;;;1.17;;
35959;SDS011;22043;50.970;7.192;2022-10-16T05:53:28;4.15;;;0.98;;
35959;SDS011;22043;50.970;7.192;2022-10-16T05:55:55;2.08;;;0.82;;
35959;SDS011;22043;50.970;7.192;2022-10-16T05:58:21;2.05;;;0.98;;
35959;SDS011;22043;50.970;7.192;2022-10-16T06:01:20;2.35;;;0.90;;
35959;SDS011;22043;50.970;7.192;2022-10-16T06:03:41;2.83;;;1.13;;
35959;SDS011;22043;50.970;7.192;2022-10-16T06:06:07;3.50;;;1.08;;
35959;SDS011;22043;50.970;7.192;2022-10-16T06:08:34;4.70;;;1.17;;
35959;SDS011;22043;50.970;7.192;2022-10-16T06:11:03;2.63;;;0.95;;
35959;SDS011;22043;50.970;7.192;2022-10-16T06:13:30;3.80;;;0.90;;
35959;SDS011;22043;50.970;7.192;2022-10-16T06:15:57;2.80;;;1.13;;
35959;SDS011;22043;50.970;7.192;2022-10-16T06:18:24;5.40;;;1.73;;
35959;SDS011;22043;50.970;7.192;2022-10-16T06:20:50;5.35;;;2.35;;
35959;SDS011;22043;50.970;7.192;2022-10-16T06:23:16;5.90;;;2.70;;
35959;SDS011;22043;50.970;7.192;2022-10-16T06:25:41;5.35;;;1.83;;
35959;SDS011;22043;50.970;7.192;2022-10-16T06:28:07;6.40;;;2.22;;
35959;SDS011;22043;50.970;7.192;2022-10-16T06:30:33;10.02;;;1.98;;
35959;SDS011;22043;50.970;7.192;2022-10-16T06:32:58;3.28;;;1.70;;
35959;SDS011;22043;50.970;7.192;2022-10-16T06:35:24;5.47;;;2.22;;
35959;SDS011;22043;50.970;7.192;2022-10-16T06:37:49;5.60;;;1.80;;
35959;SDS011;22043;50.970;7.192;2022-10-16T06:40:17;4.40;;;1.40;;
35959;SDS011;22043;50.970;7.192;2022-10-16T06:42:43;4.30;;;1.38;;
35959;SDS011;22043;50.970;7.192;2022-10-16T06:45:08;3.05;;;1.75;;
35959;SDS011;22043;50.970;7.192;2022-10-16T06:47:34;6.85;;;1.70;;
35959;SDS011;22043;50.970;7.192;2022-10-16T06:50:00;3.30;;;1.42;;
35959;SDS011;22043;50.970;7.192;2022-10-16T06:52:27;2.45;;;1.48;;
35959;SDS011;22043;50.970;7.192;2022-10-16T06:54:53;5.22;;;1.50;;
35959;SDS011;22043;50.970;7.192;2022-10-16T06:57:19;1.73;;;1.23;;
35959;SDS011;22043;50.970;7.192;2022-10-16T06:59:44;2.13;;;1.52;;
35959;SDS011;22043;50.970;7.192;2022-10-16T07:02:10;3.85;;;1.42;;
35959;SDS011;22043;50.970;7.192;2022-10-16T07:04:36;3.90;;;1.70;;
35959;SDS011;22043;50.970;7.192;2022-10-16T07:07:01;2.75;;;1.63;;
35959;SDS011;22043;50.970;7.192;2022-10-16T07:09:27;2.67;;;1.50;;
35959;SDS011;22043;50.970;7.192;2022-10-16T07:11:53;3.42;;;1.45;;
35959;SDS011;22043;50.970;7.192;2022-10-16T07:14:20;6.95;;;1.60;;
35959;SDS011;22043;50.970;7.192;2022-10-16T07:16:47;24.20;;;8.35;;
35959;SDS011;22043;50.970;7.192;2022-10-16T07:19:13;19.20;;;8.30;;
35959;SDS011;22043;50.970;7.192;2022-10-16T07:21:41;7.05;;;2.45;;
35959;SDS011;22043;50.970;7.192;2022-10-16T07:24:11;3.78;;;1.48;;
35959;SDS011;22043;50.970;7.192;2022-10-16T07:26:39;5.38;;;2.10;;
35959;SDS011;22043;50.970;7.192;2022-10-16T07:29:06;6.35;;;2.00;;
35959;SDS011;22043;50.970;7.192;2022-10-16T07:31:38;4.50;;;1.50;;
35959;SDS011;22043;50.970;7.192;2022-10-16T07:34:04;3.22;;;1.23;;
35959;SDS011;22043;50.970;7.192;2022-10-16T07:36:29;3.90;;;1.23;;
35959;SDS011;22043;50.970;7.192;2022-10-16T07:38:55;2.97;;;1.40;;
35959;SDS011;22043;50.970;7.192;2022-10-16T07:41:21;2.42;;;1.30;;
35959;SDS011;22043;50.970;7.192;2022-10-16T07:43:47;4.90;;;1.50;;
35959;SDS011;22043;50.970;7.192;2022-10-16T07:46:14;1.95;;;1.15;;
35959;SDS011;22043;50.970;7.192;2022-10-16T07:48:41;2.95;;;1.30;;
35959;SDS011;22043;50.970;7.192;2022-10-16T07:51:10;1.52;;;0.82;;
35959;SDS011;22043;50.970;7.192;2022-10-16T07:53:37;1.98;;;1.20;;
35959;SDS011;22043;50.970;7.192;2022-10-16T07:56:04;2.03;;;1.25;;
35959;SDS011;22043;50.970;7.192;2022-10-16T07:58:31;1.45;;;0.80;;
35959;SDS011;22043;50.970;7.192;2022-10-16T08:00:58;3.03;;;1.23;;
35959;SDS011;22043;50.970;7.192;2022-10-16T08:03:24;2.20;;;1.10;;
35959;SDS011;22043;50.970;7.192;2022-10-16T08:05:50;3.22;;;1.05;;
35959;SDS011;22043;50.970;7.192;2022-10-16T08:08:16;4.03;;;1.08;;
35959;SDS011;22043;50.970;7.192;2022-10-16T08:10:43;2.72;;;1.15;;
35959;SDS011;22043;50.970;7.192;2022-10-16T08:13:08;1.85;;;1.00;;
35959;SDS011;22043;50.970;7.192;2022-10-16T08:15:34;2.17;;;0.93;;
35959;SDS011;22043;50.970;7.192;2022-10-16T08:18:01;2.25;;;0.88;;
35959;SDS011;22043;50.970;7.192;2022-10-16T08:20:29;1.67;;;0.73;;
35959;SDS011;22043;50.970;7.192;2022-10-16T08:22:56;4.35;;;1.20;;
35959;SDS011;22043;50.970;7.192;2022-10-16T08:25:22;2.03;;;1.13;;
35959;SDS011;22043;50.970;7.192;2022-10-16T08:27:48;3.10;;;1.00;;
35959;SDS011;22043;50.970;7.192;2022-10-16T08:30:14;2.45;;;1.20;;
35959;SDS011;22043;50.970;7.192;2022-10-16T08:32:41;3.42;;;1.40;;
35959;SDS011;22043;50.970;7.192;2022-10-16T08:35:07;2.88;;;1.25;;
35959;SDS011;22043;50.970;7.192;2022-10-16T08:37:37;1.80;;;0.90;;
35959;SDS011;22043;50.970;7.192;2022-10-16T08:40:04;1.52;;;0.98;;
35959;SDS011;22043;50.970;7.192;2022-10-16T08:50:44;1.55;;;0.80;;
35959;SDS011;22043;50.970;7.192;2022-10-16T08:53:27;3.05;;;1.00;;
35959;SDS011;22043;50.970;7.192;2022-10-16T08:56:01;1.83;;;1.13;;
35959;SDS011;22043;50.970;7.192;2022-10-16T08:58:28;3.15;;;1.00;;
35959;SDS011;22043;50.970;7.192;2022-10-16T09:09:11;3.45;;;0.90;;
35959;SDS011;22043;50.970;7.192;2022-10-16T09:12:04;4.38;;;1.20;;
35959;SDS011;22043;50.970;7.192;2022-10-16T09:14:42;1.55;;;0.68;;
35959;SDS011;22043;50.970;7.192;2022-10-16T09:23:00;3.55;;;0.80;;
35959;SDS011;22043;50.970;7.192;2022-10-16T09:25:37;1.20;;;0.70;;
35959;SDS011;22043;50.970;7.192;2022-10-16T09:28:07;5.00;;;1.42;;
35959;SDS011;22043;50.970;7.192;2022-10-16T09:30:33;2.20;;;0.70;;
35959;SDS011;22043;50.970;7.192;2022-10-16T09:33:02;2.85;;;0.70;;
35959;SDS011;22043;50.970;7.192;2022-10-16T09:38:04;2.17;;;0.55;;
35959;SDS011;22043;50.970;7.192;2022-10-16T09:40:35;1.40;;;0.77;;
35959;SDS011;22043;50.970;7.192;2022-10-16T09:45:31;3.10;;;0.90;;
35959;SDS011;22043;50.970;7.192;2022-10-16T09:47:57;4.43;;;0.70;;
35959;SDS011;22043;50.970;7.192;2022-10-16T09:50:26;1.58;;;0.80;;
35959;SDS011;22043;50.970;7.192;2022-10-16T09:53:08;1.27;;;0.68;;
35959;SDS011;22043;50.970;7.192;2022-10-16T09:55:47;1.85;;;0.60;;
35959;SDS011;22043;50.970;7.192;2022-10-16T09:58:16;1.35;;;0.57;;
35959;SDS011;22043;50.970;7.192;2022-10-16T10:00:42;1.45;;;0.50;;
35959;SDS011;22043;50.970;7.192;2022-10-16T10:03:28;4.43;;;0.90;;
35959;SDS011;22043;50.970;7.192;2022-10-16T10:08:54;2.08;;;0.73;;
35959;SDS011;22043;50.970;7.192;2022-10-16T10:11:36;2.67;;;0.52;;
35959;SDS011;22043;50.970;7.192;2022-10-16T10:14:18;4.95;;;0.60;;
35959;SDS011;22043;50.970;7.192;2022-10-16T10:16:50;3.65;;;0.70;;
35959;SDS011;22043;50.970;7.192;2022-10-16T10:19:21;1.17;;;0.43;;
35959;SDS011;22043;50.970;7.192;2022-10-16T10:21:49;1.58;;;0.90;;
35959;SDS011;22043;50.970;7.192;2022-10-16T10:24:17;1.80;;;0.50;;
35959;SDS011;22043;50.970;7.192;2022-10-16T10:32:13;1.92;;;0.40;;
35959;SDS011;22043;50.970;7.192;2022-10-16T10:35:02;3.05;;;0.50;;
35959;SDS011;22043;50.970;7.192;2022-10-16T10:41:00;2.30;;;0.77;;
35959;SDS011;22043;50.970;7.192;2022-10-16T10:46:42;1.05;;;0.50;;
35959;SDS011;22043;50.970;7.192;2022-10-16T10:49:16;1.13;;;0.57;;
35959;SDS011;22043;50.970;7.192;2022-10-16T10:55:00;1.45;;;0.75;;
35959;SDS011;22043;50.970;7.192;2022-10-16T10:57:35;1.13;;;0.47;;
35959;SDS011;22043;50.970;7.192;2022-10-16T11:00:21;1.13;;;0.40;;
35959;SDS011;22043;50.970;7.192;2022-10-16T11:03:26;0.75;;;0.40;;
35959;SDS011;22043;50.970;7.192;2022-10-16T11:06:22;1.08;;;0.57;;
35959;SDS011;22043;50.970;7.192;2022-10-16T11:11:56;1.92;;;0.50;;
35959;SDS011;22043;50.970;7.192;2022-10-16T11:17:22;1.48;;;0.70;;
35959;SDS011;22043;50.970;7.192;2022-10-16T11:27:56;5.07;;;2.45;;
35959;SDS011;22043;50.970;7.192;2022-10-16T11:30:53;4.78;;;1.40;;
35959;SDS011;22043;50.970;7.192;2022-10-16T11:33:42;0.77;;;0.30;;
35959;SDS011;22043;50.970;7.192;2022-10-16T11:36:19;4.22;;;0.85;;
35959;SDS011;22043;50.970;7.192;2022-10-16T11:41:27;2.33;;;0.40;;
35959;SDS011;22043;50.970;7.192;2022-10-16T11:46:40;2.05;;;0.32;;
35959;SDS011;22043;50.970;7.192;2022-10-16T11:49:14;4.28;;;0.63;;
35959;SDS011;22043;50.970;7.192;2022-10-16T11:57:17;4.32;;;1.45;;
35959;SDS011;22043;50.970;7.192;2022-10-16T12:00:08;3.40;;;0.88;;
35959;SDS011;22043;50.970;7.192;2022-10-16T12:02:57;3.95;;;0.70;;
35959;SDS011;22043;50.970;7.192;2022-10-16T12:08:28;2.47;;;1.25;;
35959;SDS011;22043;50.970;7.192;2022-10-16T12:11:03;2.92;;;1.33;;
35959;SDS011;22043;50.970;7.192;2022-10-16T12:13:37;1.08;;;0.43;;
35959;SDS011;22043;50.970;7.192;2022-10-16T12:16:05;5.63;;;1.05;;
35959;SDS011;22043;50.970;7.192;2022-10-16T12:18:38;3.00;;;0.80;;
35959;SDS011;22043;50.970;7.192;2022-10-16T12:21:05;1.85;;;0.85;;
35959;SDS011;22043;50.970;7.192;2022-10-16T12:23:54;3.55;;;0.95;;
35959;SDS011;22043;50.970;7.192;2022-10-16T12:26:25;1.13;;;0.38;;
35959;SDS011;22043;50.970;7.192;2022-10-16T12:28:54;1.33;;;0.40;;
35959;SDS011;22043;50.970;7.192;2022-10-16T12:31:20;2.90;;;0.88;;
35959;SDS011;22043;50.970;7.192;2022-10-16T12:33:59;1.10;;;0.43;;
35959;SDS011;22043;50.970;7.192;2022-10-16T12:36:34;3.00;;;0.90;;
35959;SDS011;22043;50.970;7.192;2022-10-16T12:39:01;2.33;;;0.22;;
35959;SDS011;22043;50.970;7.192;2022-10-16T12:41:29;4.95;;;1.38;;
35959;SDS011;22043;50.970;7.192;2022-10-16T12:43:56;2.40;;;0.88;;
35959;SDS011;22043;50.970;7.192;2022-10-16T12:49:04;2.30;;;0.40;;
35959;SDS011;22043;50.970;7.192;2022-10-16T12:51:50;2.75;;;0.57;;
35959;SDS011;22043;50.970;7.192;2022-10-16T12:54:27;2.60;;;0.50;;
35959;SDS011;22043;50.970;7.192;2022-10-16T13:05:25;2.05;;;0.40;;
35959;SDS011;22043;50.970;7.192;2022-10-16T13:19:13;4.95;;;0.98;;
35959;SDS011;22043;50.970;7.192;2022-10-16T13:21:59;1.00;;;0.50;;
35959;SDS011;22043;50.970;7.192;2022-10-16T13:24:58;3.95;;;0.80;;
35959;SDS011;22043;50.970;7.192;2022-10-16T13:27:41;2.25;;;0.40;;
35959;SDS011;22043;50.970;7.192;2022-10-16T13:30:25;0.70;;;0.40;;
35959;SDS011;22043;50.970;7.192;2022-10-16T13:33:04;3.30;;;0.90;;
35959;SDS011;22043;50.970;7.192;2022-10-16T13:35:35;2.30;;;0.50;;
35959;SDS011;22043;50.970;7.192;2022-10-16T13:38:18;2.83;;;1.20;;
35959;SDS011;22043;50.970;7.192;2022-10-16T13:40:49;2.20;;;1.05;;
35959;SDS011;22043;50.970;7.192;2022-10-16T13:43:17;2.10;;;0.60;;
35959;SDS011;22043;50.970;7.192;2022-10-16T13:45:54;2.17;;;0.60;;
35959;SDS011;22043;50.970;7.192;2022-10-16T13:48:24;1.60;;;0.55;;
35959;SDS011;22043;50.970;7.192;2022-10-16T13:51:04;1.13;;;0.50;;
35959;SDS011;22043;50.970;7.192;2022-10-16T13:53:40;1.60;;;1.00;;
35959;SDS011;22043;50.970;7.192;2022-10-16T13:56:11;2.28;;;0.80;;
35959;SDS011;22043;50.970;7.192;2022-10-16T13:58:38;1.70;;;0.80;;
35959;SDS011;22043;50.970;7.192;2022-10-16T14:01:05;0.98;;;0.50;;
35959;SDS011;22043;50.970;7.192;2022-10-16T14:03:40;1.70;;;0.60;;
35959;SDS011;22043;50.970;7.192;2022-10-16T14:06:11;3.38;;;1.33;;
35959;SDS011;22043;50.970;7.192;2022-10-16T14:08:42;2.85;;;0.73;;
35959;SDS011;22043;50.970;7.192;2022-10-16T14:11:13;2.80;;;0.68;;
35959;SDS011;22043;50.970;7.192;2022-10-16T14:13:47;1.77;;;0.70;;
35959;SDS011;22043;50.970;7.192;2022-10-16T14:16:17;2.20;;;0.82;;
35959;SDS011;22043;50.970;7.192;2022-10-16T14:18:56;1.02;;;0.47;;
35959;SDS011;22043;50.970;7.192;2022-10-16T14:21:25;6.43;;;2.35;;
35959;SDS011;22043;50.970;7.192;2022-10-16T14:23:51;5.03;;;0.80;;
35959;SDS011;22043;50.970;7.192;2022-10-16T14:26:19;4.15;;;0.88;;
35959;SDS011;22043;50.970;7.192;2022-10-16T14:28:47;2.13;;;0.70;;
35959;SDS011;22043;50.970;7.192;2022-10-16T14:31:30;1.90;;;0.60;;
35959;SDS011;22043;50.970;7.192;2022-10-16T14:33:57;4.40;;;0.80;;
35959;SDS011;22043;50.970;7.192;2022-10-16T14:36:24;7.13;;;0.98;;
35959;SDS011;22043;50.970;7.192;2022-10-16T14:41:28;2.13;;;0.57;;
35959;SDS011;22043;50.970;7.192;2022-10-16T14:46:28;1.42;;;0.40;;
35959;SDS011;22043;50.970;7.192;2022-10-16T14:49:15;2.65;;;0.43;;
35959;SDS011;22043;50.970;7.192;2022-10-16T14:51:43;1.42;;;0.40;;
35959;SDS011;22043;50.970;7.192;2022-10-16T14:54:10;1.17;;;0.35;;
35959;SDS011;22043;50.970;7.192;2022-10-16T14:59:14;0.40;;;0.30;;
35959;SDS011;22043;50.970;7.192;2022-10-16T15:01:50;1.48;;;0.45;;
35959;SDS011;22043;50.970;7.192;2022-10-16T15:04:16;2.10;;;0.45;;
35959;SDS011;22043;50.970;7.192;2022-10-16T15:06:42;0.75;;;0.30;;
35959;SDS011;22043;50.970;7.192;2022-10-16T15:09:08;1.77;;;0.50;;
35959;SDS011;22043;50.970;7.192;2022-10-16T15:11:34;2.13;;;0.40;;
35959;SDS011;22043;50.970;7.192;2022-10-16T15:14:00;2.78;;;1.05;;
35959;SDS011;22043;50.970;7.192;2022-10-16T15:16:26;5.57;;;0.95;;
35959;SDS011;22043;50.970;7.192;2022-10-16T15:18:51;1.52;;;0.60;;
35959;SDS011;22043;50.970;7.192;2022-10-16T15:21:28;2.00;;;0.45;;
35959;SDS011;22043;50.970;7.192;2022-10-16T15:23:56;1.20;;;0.43;;
35959;SDS011;22043;50.970;7.192;2022-10-16T15:26:27;2.45;;;1.00;;
35959;SDS011;22043;50.970;7.192;2022-10-16T15:28:54;5.15;;;0.50;;
35959;SDS011;22043;50.970;7.192;2022-10-16T15:31:19;2.75;;;0.50;;
35959;SDS011;22043;50.970;7.192;2022-10-16T15:33:48;1.10;;;0.60;;
35959;SDS011;22043;50.970;7.192;2022-10-16T15:36:24;1.45;;;0.50;;
35959;SDS011;22043;50.970;7.192;2022-10-16T15:38:50;2.15;;;0.60;;
35959;SDS011;22043;50.970;7.192;2022-10-16T15:41:16;1.10;;;0.50;;
35959;SDS011;22043;50.970;7.192;2022-10-16T15:43:42;4.00;;;1.15;;
35959;SDS011;22043;50.970;7.192;2022-10-16T15:46:09;5.78;;;1.08;;
35959;SDS011;22043;50.970;7.192;2022-10-16T15:48:39;2.50;;;0.60;;
35959;SDS011;22043;50.970;7.192;2022-10-16T15:51:05;1.00;;;0.60;;
35959;SDS011;22043;50.970;7.192;2022-10-16T15:53:32;1.73;;;0.60;;
35959;SDS011;22043;50.970;7.192;2022-10-16T15:56:02;7.75;;;1.65;;
35959;SDS011;22043;50.970;7.192;2022-10-16T15:58:29;1.92;;;0.93;;
35959;SDS011;22043;50.970;7.192;2022-10-16T16:00:55;3.28;;;1.70;;
35959;SDS011;22043;50.970;7.192;2022-10-16T16:03:22;2.22;;;1.10;;
35959;SDS011;22043;50.970;7.192;2022-10-16T16:05:48;5.90;;;1.73;;
35959;SDS011;22043;50.970;7.192;2022-10-16T16:08:13;3.50;;;1.33;;
35959;SDS011;22043;50.970;7.192;2022-10-16T16:10:39;4.45;;;1.00;;
35959;SDS011;22043;50.970;7.192;2022-10-16T16:13:04;4.35;;;1.00;;
35959;SDS011;22043;50.970;7.192;2022-10-16T16:15:30;3.20;;;1.30;;
35959;SDS011;22043;50.970;7.192;2022-10-16T16:17:56;2.30;;;1.00;;
35959;SDS011;22043;50.970;7.192;2022-10-16T16:20:22;4.20;;;1.00;;
35959;SDS011;22043;50.970;7.192;2022-10-16T16:22:47;3.53;;;0.70;;
35959;SDS011;22043;50.970;7.192;2022-10-16T16:25:13;1.88;;;0.90;;
35959;SDS011;22043;50.970;7.192;2022-10-16T16:27:39;6.22;;;2.45;;
35959;SDS011;22043;50.970;7.192;2022-10-16T16:30:06;2.80;;;1.30;;
35959;SDS011;22043;50.970;7.192;2022-10-16T16:34:59;4.60;;;1.38;;
35959;SDS011;22043;50.970;7.192;2022-10-16T16:37:25;1.77;;;0.70;;
35959;SDS011;22043;50.970;7.192;2022-10-16T16:39:51;7.28;;;0.70;;
35959;SDS011;22043;50.970;7.192;2022-10-16T16:42:17;1.80;;;0.60;;
35959;SDS011;22043;50.970;7.192;2022-10-16T16:44:42;2.28;;;0.68;;
35959;SDS011;22043;50.970;7.192;2022-10-16T16:47:09;1.58;;;0.63;;
35959;SDS011;22043;50.970;7.192;2022-10-16T16:49:34;1.88;;;0.80;;
35959;SDS011;22043;50.970;7.192;2022-10-16T16:52:00;1.75;;;0.60;;
35959;SDS011;22043;50.970;7.192;2022-10-16T16:54:26;1.77;;;0.80;;
35959;SDS011;22043;50.970;7.192;2022-10-16T16:56:52;2.25;;;0.77;;
35959;SDS011;22043;50.970;7.192;2022-10-16T16:59:18;2.42;;;0.70;;
35959;SDS011;22043;50.970;7.192;2022-10-16T17:01:47;2.83;;;0.85;;
35959;SDS011;22043;50.970;7.192;2022-10-16T17:04:13;1.50;;;0.80;;
35959;SDS011;22043;50.970;7.192;2022-10-16T17:06:43;1.48;;;0.70;;
35959;SDS011;22043;50.970;7.192;2022-10-16T17:09:09;2.97;;;0.73;;
35959;SDS011;22043;50.970;7.192;2022-10-16T17:11:38;2.33;;;0.65;;